Observation data for Sundown on 03/06/2021      Previous  Date  Next       Current Mesonet Observations  Soil Data  Daily Summary Page  Observations in Plain Language
KSDS 060600Z 01004KT 02/M01 A3033 RMK A01 T00181011  RH  082%=      5-min Rain = 0
KSDS 060605Z 01004KT 02/M01 A3033 RMK A01 T00191010  RH  082%=      5-min Rain = 0
KSDS 060610Z 01004KT 02/M01 A3033 RMK A01 T00151014  RH  082%=      5-min Rain = 0
KSDS 060615Z 00003KT 01/M02 A3033 RMK A01 T00121015  RH  083%=      5-min Rain = 0
KSDS 060620Z 00003KT 01/M02 A3033 RMK A01 T00101016  RH  084%=      5-min Rain = 0
KSDS 060625Z 01003KT 01/M01 A3033 RMK A01 T00101014  RH  084%=      5-min Rain = 0
KSDS 060630Z 01003KT 01/M01 A3033 RMK A01 T00141011  RH  084%=      5-min Rain = 0
KSDS 060635Z 01003KT 02/M01 A3033 RMK A01 T00161010  RH  084%=      5-min Rain = 0
KSDS 060640Z 36003KT 01/M02 A3033 RMK A01 T00121015  RH  083%=      5-min Rain = 0
KSDS 060645Z 34003KT 01/M02 A3034 RMK A01 T00061020  RH  084%=      5-min Rain = 0
KSDS 060650Z 33003KT 00/M02 A3034 RMK A01 T00041019  RH  085%=      5-min Rain = 0
KSDS 060655Z 32003KT 00/M02 A3034 RMK A01 T00021021  RH  085%=      5-min Rain = 0
KSDS 060700Z 32003KT M00/M02 A3034 RMK A01 T10021024  RH  086%=      5-min Rain = 0
KSDS 060705Z 31004KT M01/M03 A3034 RMK A01 T10051026  RH  086%=      5-min Rain = 0
KSDS 060710Z 31004KT M01/M03 A3033 RMK A01 T10051026  RH  087%=      5-min Rain = 0
KSDS 060715Z 32004KT M01/M03 A3033 RMK A01 T10051025  RH  087%=      5-min Rain = 0
KSDS 060720Z 32004KT M01/M03 A3033 RMK A01 T10061026  RH  087%=      5-min Rain = 0
KSDS 060725Z 33005KT M01/M03 A3033 RMK A01 T10081028  RH  087%=      5-min Rain = 0
KSDS 060730Z 33005KT M01/M03 A3033 RMK A01 T10091028  RH  087%=      5-min Rain = 0
KSDS 060735Z 33006KT M01/M03 A3033 RMK A01 T10091028  RH  088%=      5-min Rain = 0
KSDS 060740Z 33005KT M01/M03 A3033 RMK A01 T10081026  RH  088%=      5-min Rain = 0
KSDS 060745Z 33005KT M01/M02 A3033 RMK A01 T10061024  RH  089%=      5-min Rain = 0
KSDS 060750Z 33004KT M01/M02 A3033 RMK A01 T10061024  RH  088%=      5-min Rain = 0
KSDS 060755Z 32004KT M01/M02 A3033 RMK A01 T10061024  RH  088%=      5-min Rain = 0
KSDS 060800Z 32004KT M01/M03 A3033 RMK A01 T10081025  RH  088%=      5-min Rain = 0
KSDS 060805Z 31005KT M01/M02 A3033 RMK A01 T10071024  RH  089%=      5-min Rain = 0
KSDS 060810Z 31005KT M01/M03 A3033 RMK A01 T10081025  RH  089%=      5-min Rain = 0
KSDS 060815Z 31005KT M01/M03 A3033 RMK A01 T10091026  RH  089%=      5-min Rain = 0
KSDS 060820Z 30005KT M01/M03 A3033 RMK A01 T10101027  RH  089%=      5-min Rain = 0
KSDS 060825Z 31005KT M01/M03 A3033 RMK A01 T10111028  RH  089%=      5-min Rain = 0
KSDS 060830Z 31004KT M01/M03 A3033 RMK A01 T10111027  RH  089%=      5-min Rain = 0
KSDS 060835Z 30004KT M01/M03 A3033 RMK A01 T10121028  RH  089%=      5-min Rain = 0
KSDS 060840Z 29004KT M01/M03 A3033 RMK A01 T10111027  RH  090%=      5-min Rain = 0
KSDS 060845Z 30004KT M01/M03 A3033 RMK A01 T10101026  RH  090%=      5-min Rain = 0
KSDS 060850Z 29004KT M01/M03 A3033 RMK A01 T10101026  RH  090%=      5-min Rain = 0
KSDS 060855Z 29005KT M01/M03 A3033 RMK A01 T10131028  RH  090%=      5-min Rain = 0
KSDS 060900Z 29005KT M01/M03 A3033 RMK A01 T10131028  RH  090%=      5-min Rain = 0
KSDS 060905Z 28005KT M01/M03 A3033 RMK A01 T10131028  RH  091%=      5-min Rain = 0
KSDS 060910Z 28005KT M01/M03 A3033 RMK A01 T10121025  RH  091%=      5-min Rain = 0
KSDS 060915Z 29005KT M01/M02 A3033 RMK A01 T10101023  RH  091%=      5-min Rain = 0
KSDS 060920Z 29006KT M01/M03 A3033 RMK A01 T10121025  RH  091%=      5-min Rain = 0
KSDS 060925Z 28006KT M01/M03 A3033 RMK A01 T10121025  RH  092%=      5-min Rain = 0
KSDS 060930Z 28006KT M01/M02 A3033 RMK A01 T10121024  RH  092%=      5-min Rain = 0
KSDS 060935Z 28007KT M01/M02 A3033 RMK A01 T10121024  RH  092%=      5-min Rain = 0
KSDS 060940Z 28006KT M01/M03 A3032 RMK A01 T10131025  RH  092%=      5-min Rain = 0
KSDS 060945Z 28007KT M01/M03 A3032 RMK A01 T10131025  RH  092%=      5-min Rain = 0
KSDS 060950Z 28007KT M01/M03 A3032 RMK A01 T10131025  RH  093%=      5-min Rain = 0
KSDS 060955Z 28007KT M01/M03 A3032 RMK A01 T10141025  RH  093%=      5-min Rain = 0
KSDS 061000Z 28007KT M01/M03 A3032 RMK A01 T10141025  RH  093%=      5-min Rain = 0
KSDS 061005Z 29007KT M02/M03 A3032 RMK A01 T10161027  RH  093%=      5-min Rain = 0
KSDS 061010Z 29006KT M02/M03 A3032 RMK A01 T10161027  RH  093%=      5-min Rain = 0
KSDS 061015Z 29006KT M02/M03 A3032 RMK A01 T10171028  RH  093%=      5-min Rain = 0
KSDS 061020Z 29007KT M02/M03 A3033 RMK A01 T10181028  RH  093%=      5-min Rain = 0
KSDS 061025Z 29007KT M02/M03 A3033 RMK A01 T10181028  RH  094%=      5-min Rain = 0
KSDS 061030Z 29007KT M02/M03 A3033 RMK A01 T10181028  RH  094%=      5-min Rain = 0
KSDS 061035Z 29007KT M02/M03 A3033 RMK A01 T10181028  RH  094%=      5-min Rain = 0
KSDS 061040Z 29006KT M02/M03 A3033 RMK A01 T10201030  RH  093%=      5-min Rain = 0
KSDS 061045Z 29007KT M02/M03 A3033 RMK A01 T10211031  RH  093%=      5-min Rain = 0
KSDS 061050Z 29007KT M02/M03 A3033 RMK A01 T10201030  RH  094%=      5-min Rain = 0
KSDS 061055Z 29006KT M02/M03 A3033 RMK A01 T10211031  RH  094%=      5-min Rain = 0
KSDS 061100Z 29006KT M02/M03 A3033 RMK A01 T10211031  RH  094%=      5-min Rain = 0
KSDS 061105Z 30006KT M02/M03 A3033 RMK A01 T10221031  RH  094%=      5-min Rain = 0
KSDS 061110Z 30007KT M02/M03 A3034 RMK A01 T10201029  RH  094%=      5-min Rain = 0
KSDS 061115Z 30006KT M02/M03 A3034 RMK A01 T10211031  RH  094%=      5-min Rain = 0
KSDS 061120Z 30006KT M02/M03 A3034 RMK A01 T10211030  RH  094%=      5-min Rain = 0
KSDS 061125Z 30006KT M02/M03 A3034 RMK A01 T10211029  RH  094%=      5-min Rain = 0
KSDS 061130Z 30006KT M02/M03 A3034 RMK A01 T10211030  RH  095%=      5-min Rain = 0
KSDS 061135Z 30006KT M02/M03 A3034 RMK A01 T10211029  RH  095%=      5-min Rain = 0
KSDS 061140Z 30006KT M02/M03 A3034 RMK A01 T10201027  RH  095%=      5-min Rain = 0
KSDS 061145Z 30006KT M02/M03 A3034 RMK A01 T10201028  RH  095%=      5-min Rain = 0
KSDS 061150Z 29006KT M02/M03 A3034 RMK A01 T10201029  RH  095%=      5-min Rain = 0
KSDS 061155Z 29006KT M02/M03 A3034 RMK A01 T10211029  RH  095%=      5-min Rain = 0
KSDS 061200Z 30006KT M02/M03 A3034 RMK A01 T10221031  RH  095%=      5-min Rain = 0
KSDS 061205Z 30006KT M02/M03 A3034 RMK A01 T10231031  RH  095%=      5-min Rain = 0
KSDS 061210Z 30007KT M02/M03 A3034 RMK A01 T10231031  RH  095%=      5-min Rain = 0
KSDS 061215Z 29007KT M02/M03 A3034 RMK A01 T10221030  RH  095%=      5-min Rain = 0
KSDS 061220Z 30007KT M02/M03 A3034 RMK A01 T10211029  RH  095%=      5-min Rain = 0
KSDS 061225Z 31006KT M02/M03 A3034 RMK A01 T10201027  RH  095%=      5-min Rain = 0
KSDS 061230Z 30006KT M02/M03 A3034 RMK A01 T10181025  RH  095%=      5-min Rain = 0
KSDS 061235Z 30006KT M02/M03 A3034 RMK A01 T10191027  RH  095%=      5-min Rain = 0
KSDS 061240Z 30006KT M02/M03 A3034 RMK A01 T10201028  RH  095%=      5-min Rain = 0
KSDS 061245Z 31006KT M02/M03 A3034 RMK A01 T10201028  RH  095%=      5-min Rain = 0
KSDS 061250Z 31006KT M02/M03 A3034 RMK A01 T10211029  RH  095%=      5-min Rain = 0
KSDS 061255Z 31005KT M02/M03 A3034 RMK A01 T10231030  RH  095%=      5-min Rain = 0
KSDS 061300Z 30005KT M02/M03 A3034 RMK A01 T10231031  RH  095%=      5-min Rain = 0
KSDS 061305Z 30005KT M02/M03 A3034 RMK A01 T10231030  RH  095%=      5-min Rain = 0
KSDS 061310Z 31006KT M02/M03 A3034 RMK A01 T10231030  RH  095%=      5-min Rain = 0
KSDS 061315Z 31006KT M02/M03 A3034 RMK A01 T10231030  RH  095%=      5-min Rain = 0
KSDS 061320Z 31006KT M02/M03 A3034 RMK A01 T10231030  RH  095%=      5-min Rain = 0
KSDS 061325Z 31006KT M02/M03 A3034 RMK A01 T10231031  RH  095%=      5-min Rain = 0
KSDS 061330Z 31006KT M02/M03 A3034 RMK A01 T10231031  RH  095%=      5-min Rain = 0
KSDS 061335Z 31006KT M02/M03 A3033 RMK A01 T10211029  RH  095%=      5-min Rain = 0
KSDS 061340Z 32006KT M02/M03 A3033 RMK A01 T10191027  RH  095%=      5-min Rain = 0
KSDS 061345Z 32006KT M02/M03 A3033 RMK A01 T10171025  RH  095%=      5-min Rain = 0
KSDS 061350Z 32006KT M01/M02 A3033 RMK A01 T10121021  RH  095%=      5-min Rain = 0
KSDS 061355Z 32005KT M01/M02 A3033 RMK A01 T10071016  RH  095%=      5-min Rain = 0
KSDS 061400Z 32004KT M00/M01 A3033 RMK A01 T10011010  RH  094%=      5-min Rain = 0
KSDS 061405Z 32004KT 00/M01 A3033 RMK A01 T00041006  RH  094%=      5-min Rain = 0
KSDS 061410Z 32005KT 01/M00 A3033 RMK A01 T00101001  RH  094%=      5-min Rain = 0
KSDS 061415Z 32005KT 02/00 A3033 RMK A01 T00150003  RH  093%=      5-min Rain = 0
KSDS 061420Z 32004KT 02/01 A3034 RMK A01 T00210007  RH  092%=      5-min Rain = 0
KSDS 061425Z 32004KT 03/01 A3034 RMK A01 T00280012  RH  091%=      5-min Rain = 0
KSDS 061430Z 31004KT 04/02 A3034 RMK A01 T00350016  RH  089%=      5-min Rain = 0
KSDS 061435Z 30003KT 04/02 A3034 RMK A01 T00420020  RH  087%=      5-min Rain = 0
KSDS 061440Z 30003KT 05/02 A3034 RMK A01 T00480023  RH  085%=      5-min Rain = 0
KSDS 061445Z 31003KT 05/03 A3035 RMK A01 T00540025  RH  083%=      5-min Rain = 0
KSDS 061450Z 31003KT 06/03 A3035 RMK A01 T00600028  RH  081%=      5-min Rain = 0
KSDS 061455Z 31002KT 07/03 A3035 RMK A01 T00670031  RH  079%=      5-min Rain = 0
KSDS 061500Z 31003KT 07/03 A3035 RMK A01 T00720031  RH  076%=      5-min Rain = 0
KSDS 061505Z 30002KT 08/03 A3035 RMK A01 T00760029  RH  073%=      5-min Rain = 0
KSDS 061510Z 27002KT 08/03 A3035 RMK A01 T00810028  RH  070%=      5-min Rain = 0
KSDS 061515Z 31002KT 09/03 A3035 RMK A01 T00860027  RH  068%=      5-min Rain = 0
KSDS 061520Z 31001KT 09/03 A3035 RMK A01 T00880025  RH  066%=      5-min Rain = 0
KSDS 061525Z 29001KT 09/03 A3035 RMK A01 T00920025  RH  064%=      5-min Rain = 0
KSDS 061530Z 02002KT 10/02 A3035 RMK A01 T00960024  RH  062%=      5-min Rain = 0
KSDS 061535Z 32002KT 10/02 A3035 RMK A01 T00990022  RH  060%=      5-min Rain = 0
KSDS 061540Z 33001KT 10/02 A3035 RMK A01 T00980023  RH  060%=      5-min Rain = 0
KSDS 061545Z 18001KT 10/02 A3035 RMK A01 T01020022  RH  059%=      5-min Rain = 0
KSDS 061550Z 19001KT 11/02 A3035 RMK A01 T01070021  RH  056%=      5-min Rain = 0
KSDS 061555Z 35003KT 11/02 A3035 RMK A01 T01080018  RH  054%=      5-min Rain = 0
KSDS 061600Z 03003KT 11/02 A3035 RMK A01 T01090018  RH  054%=      5-min Rain = 0
KSDS 061605Z 07003KT 11/02 A3035 RMK A01 T01080017  RH  054%=      5-min Rain = 0
KSDS 061610Z 12001KT 11/02 A3035 RMK A01 T01050015  RH  055%=      5-min Rain = 0
KSDS 061615Z 13001KT 11/02 A3035 RMK A01 T01110017  RH  053%=      5-min Rain = 0
KSDS 061620Z 06006KT 12/02 A3035 RMK A01 T01170017  RH  051%=      5-min Rain = 0
KSDS 061625Z 07004KT 12/02 A3035 RMK A01 T01160016  RH  051%=      5-min Rain = 0
KSDS 061630Z 03005KT 12/02 A3034 RMK A01 T01160016  RH  051%=      5-min Rain = 0
KSDS 061635Z 36002KT 12/02 A3034 RMK A01 T01150015  RH  051%=      5-min Rain = 0
KSDS 061640Z 11002G7KT 12/01 A3035 RMK A01 T01240013  RH  047%=      5-min Rain = 0
KSDS 061645Z 13005KT 12/01 A3035 RMK A01 T01220008  RH  046%=      5-min Rain = 0
KSDS 061650Z 13005KT 12/01 A3035 RMK A01 T01190008  RH  047%=      5-min Rain = 0
KSDS 061655Z 05003KT 12/01 A3035 RMK A01 T01210008  RH  046%=      5-min Rain = 0
KSDS 061700Z 11003G9KT 12/01 A3034 RMK A01 T01240010  RH  046%=      5-min Rain = 0
KSDS 061705Z 10006KT 13/01 A3034 RMK A01 T01260006  RH  044%=      5-min Rain = 0
KSDS 061710Z 11004KT 13/01 A3034 RMK A01 T01290006  RH  044%=      5-min Rain = 0
KSDS 061715Z 14005G10KT 13/01 A3034 RMK A01 T01300005  RH  043%=      5-min Rain = 0
KSDS 061720Z 15008KT 13/00 A3034 RMK A01 T01300002  RH  042%=      5-min Rain = 0
KSDS 061725Z 15008KT 13/00 A3034 RMK A01 T01340001  RH  041%=      5-min Rain = 0
KSDS 061730Z 14004G9KT 13/M00 A3034 RMK A01 T01321004  RH  040%=      5-min Rain = 0
KSDS 061735Z 11005G11KT 14/M01 A3035 RMK A01 T01371012  RH  036%=      5-min Rain = 0
KSDS 061740Z 18005KT 13/M01 A3034 RMK A01 T01331008  RH  038%=      5-min Rain = 0
KSDS 061745Z 15006KT 13/M01 A3034 RMK A01 T01341006  RH  038%=      5-min Rain = 0
KSDS 061750Z 13005G10KT 14/M01 A3033 RMK A01 T01351007  RH  038%=      5-min Rain = 0
KSDS 061755Z 09005G10KT 14/M01 A3033 RMK A01 T01371010  RH  037%=      5-min Rain = 0
KSDS 061800Z 09008KT 14/M01 A3033 RMK A01 T01391013  RH  035%=      5-min Rain = 0
KSDS 061805Z 09006G11KT 14/M02 A3033 RMK A01 T01411016  RH  034%=      5-min Rain = 0
KSDS 061810Z 11008G13KT 14/M02 A3032 RMK A01 T01401019  RH  033%=      5-min Rain = 0
KSDS 061815Z 12009G14KT 14/M02 A3032 RMK A01 T01411023  RH  032%=      5-min Rain = 0
KSDS 061820Z 11007G16KT 14/M02 A3032 RMK A01 T01401021  RH  033%=      5-min Rain = 0
KSDS 061825Z 11007G12KT 14/M02 A3032 RMK A01 T01391020  RH  034%=      5-min Rain = 0
KSDS 061830Z 13007KT 14/M02 A3032 RMK A01 T01411021  RH  033%=      5-min Rain = 0
KSDS 061835Z 14009G14KT 15/M02 A3031 RMK A01 T01461024  RH  031%=      5-min Rain = 0
KSDS 061840Z 16009KT 15/M02 A3031 RMK A01 T01451023  RH  031%=      5-min Rain = 0
KSDS 061845Z 11006G12KT 14/M02 A3031 RMK A01 T01401020  RH  033%=      5-min Rain = 0
KSDS 061850Z 13008G13KT 14/M03 A3031 RMK A01 T01431028  RH  031%=      5-min Rain = 0
KSDS 061855Z 15009G14KT 14/M05 A303 RMK A01 T01431045  RH  027%=      5-min Rain = 0
KSDS 061900Z 15006G13KT 15/M04 A303 RMK A01 T01461042  RH  027%=      5-min Rain = 0
KSDS 061905Z 16007KT 15/M03 A3029 RMK A01 T01511026  RH  030%=      5-min Rain = 0
KSDS 061910Z 13009G17KT 15/M02 A3029 RMK A01 T01501024  RH  030%=      5-min Rain = 0
KSDS 061915Z 14010KT 15/M02 A3029 RMK A01 T01511023  RH  030%=      5-min Rain = 0
KSDS 061920Z 12008KT 15/M03 A3028 RMK A01 T01491028  RH  029%=      5-min Rain = 0
KSDS 061925Z 15011KT 15/M04 A3028 RMK A01 T01511036  RH  028%=      5-min Rain = 0
KSDS 061930Z 15010KT 15/M04 A3028 RMK A01 T01541035  RH  027%=      5-min Rain = 0
KSDS 061935Z 14006G14KT 15/M03 A3027 RMK A01 T01501031  RH  029%=      5-min Rain = 0
KSDS 061940Z 13009G14KT 16/M03 A3027 RMK A01 T01571034  RH  027%=      5-min Rain = 0
KSDS 061945Z 13006G11KT 15/M04 A3026 RMK A01 T01521038  RH  027%=      5-min Rain = 0
KSDS 061950Z 13010G18KT 15/M04 A3026 RMK A01 T01521038  RH  027%=      5-min Rain = 0
KSDS 061955Z 14011G18KT 15/M04 A3026 RMK A01 T01541042  RH  026%=      5-min Rain = 0
KSDS 062000Z 13006G13KT 16/M04 A3025 RMK A01 T01571037  RH  026%=      5-min Rain = 0
KSDS 062005Z 13010G16KT 16/M04 A3025 RMK A01 T01601038  RH  026%=      5-min Rain = 0
KSDS 062010Z 15010G16KT 16/M04 A3025 RMK A01 T01561035  RH  027%=      5-min Rain = 0
KSDS 062015Z 15010G15KT 16/M04 A3025 RMK A01 T01611041  RH  025%=      5-min Rain = 0
KSDS 062020Z 18009KT 16/M04 A3024 RMK A01 T01571042  RH  025%=      5-min Rain = 0
KSDS 062025Z 18012KT 16/M05 A3024 RMK A01 T01601047  RH  024%=      5-min Rain = 0
KSDS 062030Z 16013G18KT 16/M05 A3024 RMK A01 T01611049  RH  023%=      5-min Rain = 0
KSDS 062035Z 14009G15KT 16/M05 A3024 RMK A01 T01551051  RH  024%=      5-min Rain = 0
KSDS 062040Z 14011G18KT 16/M05 A3023 RMK A01 T01581051  RH  023%=      5-min Rain = 0
KSDS 062045Z 16011KT 16/M05 A3023 RMK A01 T01591047  RH  024%=      5-min Rain = 0
KSDS 062050Z 15008G14KT 16/M04 A3023 RMK A01 T01561043  RH  025%=      5-min Rain = 0
KSDS 062055Z 15010G15KT 16/M05 A3023 RMK A01 T01591046  RH  024%=      5-min Rain = 0
KSDS 062100Z 17012KT 16/M05 A3023 RMK A01 T01601049  RH  023%=      5-min Rain = 0
KSDS 062105Z 15008G13KT 16/M05 A3023 RMK A01 T01601046  RH  024%=      5-min Rain = 0
KSDS 062110Z 16006G13KT 16/M04 A3022 RMK A01 T01601042  RH  025%=      5-min Rain = 0
KSDS 062115Z 16012G17KT 16/M05 A3022 RMK A01 T01621046  RH  024%=      5-min Rain = 0
KSDS 062120Z 15010G17KT 16/M05 A3022 RMK A01 T01641047  RH  023%=      5-min Rain = 0
KSDS 062125Z 15009G16KT 16/M05 A3021 RMK A01 T01601049  RH  023%=      5-min Rain = 0
KSDS 062130Z 15011G16KT 16/M06 A3021 RMK A01 T01601055  RH  023%=      5-min Rain = 0
KSDS 062135Z 16010KT 16/M06 A3021 RMK A01 T01631059  RH  021%=      5-min Rain = 0
KSDS 062140Z 17011KT 17/M05 A3021 RMK A01 T01651050  RH  022%=      5-min Rain = 0
KSDS 062145Z 17008G14KT 16/M05 A302 RMK A01 T01611049  RH  023%=      5-min Rain = 0
KSDS 062150Z 16010G17KT 17/M05 A302 RMK A01 T01661051  RH  022%=      5-min Rain = 0
KSDS 062155Z 16012G19KT 16/M05 A302 RMK A01 T01631053  RH  022%=      5-min Rain = 0
KSDS 062200Z 14008G13KT 16/M06 A302 RMK A01 T01631057  RH  022%=      5-min Rain = 0
KSDS 062205Z 16009G14KT 17/M06 A3019 RMK A01 T01661056  RH  021%=      5-min Rain = 0
KSDS 062210Z 14010G15KT 16/M06 A3019 RMK A01 T01631057  RH  022%=      5-min Rain = 0
KSDS 062215Z 16010G15KT 16/M06 A302 RMK A01 T01631059  RH  021%=      5-min Rain = 0
KSDS 062220Z 16009G16KT 16/M06 A3019 RMK A01 T01611057  RH  022%=      5-min Rain = 0
KSDS 062225Z 17009G14KT 16/M05 A3019 RMK A01 T01621046  RH  024%=      5-min Rain = 0
KSDS 062230Z 14010G15KT 16/M05 A3019 RMK A01 T01631046  RH  024%=      5-min Rain = 0
KSDS 062235Z 17012G17KT 16/M05 A3019 RMK A01 T01631048  RH  023%=      5-min Rain = 0
KSDS 062240Z 17010KT 16/M05 A3019 RMK A01 T01611050  RH  023%=      5-min Rain = 0
KSDS 062245Z 17010G15KT 16/M05 A3019 RMK A01 T01631049  RH  023%=      5-min Rain = 0
KSDS 062250Z 17011G19KT 16/M05 A3018 RMK A01 T01631052  RH  023%=      5-min Rain = 0
KSDS 062255Z 13010G15KT 16/M05 A3018 RMK A01 T01601050  RH  023%=      5-min Rain = 0
KSDS 062300Z 14010G15KT 16/M05 A3018 RMK A01 T01601048  RH  024%=      5-min Rain = 0
KSDS 062305Z 16011G17KT 16/M05 A3017 RMK A01 T01611049  RH  023%=      5-min Rain = 0
KSDS 062310Z 17011KT 16/M05 A3017 RMK A01 T01611053  RH  023%=      5-min Rain = 0
KSDS 062315Z 16010G15KT 16/M05 A3017 RMK A01 T01611050  RH  023%=      5-min Rain = 0
KSDS 062320Z 15009G14KT 16/M05 A3018 RMK A01 T01601050  RH  023%=      5-min Rain = 0
KSDS 062325Z 17011KT 16/M05 A3018 RMK A01 T01581051  RH  023%=      5-min Rain = 0
KSDS 062330Z 17010KT 16/M05 A3018 RMK A01 T01571051  RH  024%=      5-min Rain = 0
KSDS 062335Z 16010KT 16/M05 A3018 RMK A01 T01581052  RH  023%=      5-min Rain = 0
KSDS 062340Z 16012KT 16/M06 A3018 RMK A01 T01561055  RH  023%=      5-min Rain = 0
KSDS 062345Z 16010G15KT 15/M06 A3018 RMK A01 T01531056  RH  023%=      5-min Rain = 0
KSDS 062350Z 16011KT 16/M06 A3018 RMK A01 T01551056  RH  023%=      5-min Rain = 0
KSDS 062355Z 16010KT 15/M05 A3018 RMK A01 T01531049  RH  024%=      5-min Rain = 0
KSDS 070000Z 16012KT 15/M05 A3018 RMK A01 T01511048  RH  025%=      5-min Rain = 0
KSDS 070005Z 16010KT 15/M05 A3018 RMK A01 T01491049  RH  025%=      5-min Rain = 0
KSDS 070010Z 16011KT 15/M05 A3018 RMK A01 T01471052  RH  025%=      5-min Rain = 0
KSDS 070015Z 16010KT 15/M05 A3019 RMK A01 T01461052  RH  025%=      5-min Rain = 0
KSDS 070020Z 16010G15KT 14/M05 A3019 RMK A01 T01441049  RH  026%=      5-min Rain = 0
KSDS 070025Z 16009KT 14/M05 A3019 RMK A01 T01401048  RH  027%=      5-min Rain = 0
KSDS 070030Z 16008KT 14/M05 A3019 RMK A01 T01381048  RH  027%=      5-min Rain = 0
KSDS 070035Z 16008KT 14/M05 A3019 RMK A01 T01351048  RH  028%=      5-min Rain = 0
KSDS 070040Z 16010KT 13/M05 A3019 RMK A01 T01321049  RH  028%=      5-min Rain = 0
KSDS 070045Z 15008KT 13/M05 A3019 RMK A01 T01261051  RH  029%=      5-min Rain = 0
KSDS 070050Z 15008KT 12/M05 A3019 RMK A01 T01201050  RH  030%=      5-min Rain = 0
KSDS 070055Z 16009KT 12/M05 A3019 RMK A01 T01161048  RH  031%=      5-min Rain = 0
KSDS 070100Z 16008KT 11/M05 A3019 RMK A01 T01121048  RH  032%=      5-min Rain = 0
KSDS 070105Z 16008KT 11/M05 A3019 RMK A01 T01071050  RH  033%=      5-min Rain = 0
KSDS 070110Z 16008KT 10/M05 A3019 RMK A01 T01011051  RH  034%=      5-min Rain = 0
KSDS 070115Z 16008KT 10/M05 A3019 RMK A01 T00961053  RH  035%=      5-min Rain = 0
KSDS 070120Z 16008KT 09/M05 A3019 RMK A01 T00911054  RH  036%=      5-min Rain = 0
KSDS 070125Z 16009KT 09/M05 A3019 RMK A01 T00871054  RH  036%=      5-min Rain = 0
KSDS 070130Z 16008KT 09/M05 A3019 RMK A01 T00851054  RH  037%=      5-min Rain = 0
KSDS 070135Z 16008KT 08/M05 A3019 RMK A01 T00831053  RH  038%=      5-min Rain = 0
KSDS 070140Z 16008KT 08/M05 A3019 RMK A01 T00791054  RH  038%=      5-min Rain = 0
KSDS 070145Z 16008KT 07/M06 A3019 RMK A01 T00731055  RH  040%=      5-min Rain = 0
KSDS 070150Z 16008KT 07/M06 A3019 RMK A01 T00701055  RH  040%=      5-min Rain = 0
KSDS 070155Z 16008KT 07/M06 A3019 RMK A01 T00681056  RH  041%=      5-min Rain = 0
KSDS 070200Z 16009KT 07/M06 A3019 RMK A01 T00651057  RH  041%=      5-min Rain = 0
KSDS 070205Z 16009KT 06/M06 A3019 RMK A01 T00631056  RH  042%=      5-min Rain = 0
KSDS 070210Z 16008KT 06/M06 A3019 RMK A01 T00611056  RH  043%=      5-min Rain = 0
KSDS 070215Z 16008KT 06/M05 A3019 RMK A01 T00631053  RH  043%=      5-min Rain = 0
KSDS 070220Z 16008KT 07/M05 A3019 RMK A01 T00651051  RH  043%=      5-min Rain = 0
KSDS 070225Z 15009KT 07/M05 A3019 RMK A01 T00671049  RH  043%=      5-min Rain = 0
KSDS 070230Z 15008KT 07/M05 A3019 RMK A01 T00681048  RH  043%=      5-min Rain = 0
KSDS 070235Z 15008KT 07/M05 A3019 RMK A01 T00681047  RH  044%=      5-min Rain = 0
KSDS 070240Z 15009KT 07/M05 A3019 RMK A01 T00671046  RH  044%=      5-min Rain = 0
KSDS 070245Z 15009KT 07/M04 A3019 RMK A01 T00671044  RH  045%=      5-min Rain = 0
KSDS 070250Z 16008KT 07/M04 A3019 RMK A01 T00651044  RH  046%=      5-min Rain = 0
KSDS 070255Z 16008KT 06/M04 A3019 RMK A01 T00621044  RH  047%=      5-min Rain = 0
KSDS 070300Z 16008KT 06/M04 A302 RMK A01 T00601043  RH  048%=      5-min Rain = 0
KSDS 070305Z 16008KT 06/M04 A302 RMK A01 T00591043  RH  048%=      5-min Rain = 0
KSDS 070310Z 16008KT 06/M04 A302 RMK A01 T00591041  RH  049%=      5-min Rain = 0
KSDS 070315Z 16008KT 06/M04 A302 RMK A01 T00601040  RH  049%=      5-min Rain = 0
KSDS 070320Z 16008KT 06/M04 A302 RMK A01 T00591039  RH  049%=      5-min Rain = 0
KSDS 070325Z 16009KT 06/M04 A302 RMK A01 T00581040  RH  050%=      5-min Rain = 0
KSDS 070330Z 16008KT 06/M04 A302 RMK A01 T00571040  RH  050%=      5-min Rain = 0
KSDS 070335Z 16008KT 05/M04 A302 RMK A01 T00541040  RH  051%=      5-min Rain = 0
KSDS 070340Z 16009KT 05/M04 A302 RMK A01 T00521040  RH  052%=      5-min Rain = 0
KSDS 070345Z 15008KT 05/M04 A302 RMK A01 T00521039  RH  052%=      5-min Rain = 0
KSDS 070350Z 16008KT 05/M04 A302 RMK A01 T00541038  RH  052%=      5-min Rain = 0
KSDS 070355Z 16008KT 05/M04 A302 RMK A01 T00541038  RH  052%=      5-min Rain = 0
KSDS 070400Z 16008KT 05/M04 A3021 RMK A01 T00521038  RH  052%=      5-min Rain = 0
KSDS 070405Z 16008KT 05/M04 A3021 RMK A01 T00501038  RH  053%=      5-min Rain = 0
KSDS 070410Z 16008KT 05/M04 A3021 RMK A01 T00471039  RH  054%=      5-min Rain = 0
KSDS 070415Z 16008KT 04/M04 A3021 RMK A01 T00431040  RH  055%=      5-min Rain = 0
KSDS 070420Z 16008KT 04/M04 A3021 RMK A01 T00401040  RH  056%=      5-min Rain = 0
KSDS 070425Z 16007KT 04/M04 A3022 RMK A01 T00401039  RH  057%=      5-min Rain = 0
KSDS 070430Z 16007KT 04/M04 A3022 RMK A01 T00421038  RH  056%=      5-min Rain = 0
KSDS 070435Z 17007KT 04/M04 A3022 RMK A01 T00411038  RH  057%=      5-min Rain = 0
KSDS 070440Z 16007KT 04/M04 A3022 RMK A01 T00401038  RH  057%=      5-min Rain = 0
KSDS 070445Z 17007KT 04/M04 A3022 RMK A01 T00381040  RH  057%=      5-min Rain = 0
KSDS 070450Z 17007KT 04/M04 A3022 RMK A01 T00381039  RH  058%=      5-min Rain = 0
KSDS 070455Z 16007KT 04/M04 A3022 RMK A01 T00371039  RH  058%=      5-min Rain = 0
KSDS 070500Z 16008KT 04/M04 A3022 RMK A01 T00361039  RH  058%=      5-min Rain = 0
KSDS 070505Z 16008KT 03/M04 A3022 RMK A01 T00341040  RH  059%=      5-min Rain = 0
KSDS 070510Z 17008KT 03/M04 A3022 RMK A01 T00291043  RH  059%=      5-min Rain = 0
KSDS 070515Z 17009KT 02/M05 A3022 RMK A01 T00231045  RH  061%=      5-min Rain = 0
KSDS 070520Z 17010KT 03/M04 A3022 RMK A01 T00271040  RH  062%=      5-min Rain = 0
KSDS 070525Z 17009KT 03/M04 A3021 RMK A01 T00301039  RH  061%=      5-min Rain = 0
KSDS 070530Z 17009KT 03/M04 A3022 RMK A01 T00321037  RH  061%=      5-min Rain = 0
KSDS 070535Z 17008KT 03/M04 A3022 RMK A01 T00331036  RH  061%=      5-min Rain = 0
KSDS 070540Z 17007KT 03/M04 A3022 RMK A01 T00321037  RH  061%=      5-min Rain = 0
KSDS 070545Z 17008KT 03/M04 A3022 RMK A01 T00301038  RH  061%=      5-min Rain = 0
KSDS 070550Z 17007KT 03/M04 A3022 RMK A01 T00291039  RH  061%=      5-min Rain = 0
KSDS 070555Z 17008KT 03/M04 A3022 RMK A01 T00271039  RH  062%=      5-min Rain = 0

Page generated in 0.008 seconds.